Map

Track Data

SID SEASON NUMBER BASIN SUBBASIN NAME ISO_TIME NATURE LAT LON WMO_WIND WMO_PRES WMO_AGENCY TRACK_TYPE DIST2LAND LANDFALL IFLAG USA_AGENCY USA_ATCF_ID USA_LAT USA_LON USA_RECORD USA_STATUS USA_WIND USA_PRES USA_SSHS USA_R34_NE USA_R34_SE USA_R34_SW USA_R34_NW USA_R50_NE USA_R50_SE USA_R50_SW USA_R50_NW USA_R64_NE USA_R64_SE USA_R64_SW USA_R64_NW USA_POCI USA_ROCI USA_RMW USA_EYE TOKYO_LAT TOKYO_LON TOKYO_GRADE TOKYO_WIND TOKYO_PRES TOKYO_R50_DIR TOKYO_R50_LONG TOKYO_R50_SHORT TOKYO_R30_DIR TOKYO_R30_LONG TOKYO_R30_SHORT TOKYO_LAND CMA_LAT CMA_LON CMA_CAT CMA_WIND CMA_PRES HKO_LAT HKO_LON HKO_CAT HKO_WIND HKO_PRES NEWDELHI_LAT NEWDELHI_LON NEWDELHI_GRADE NEWDELHI_WIND NEWDELHI_PRES NEWDELHI_CI NEWDELHI_DP NEWDELHI_POCI REUNION_LAT REUNION_LON REUNION_TYPE REUNION_WIND REUNION_PRES REUNION_TNUM REUNION_CI REUNION_RMW REUNION_R34_NE REUNION_R34_SE REUNION_R34_SW REUNION_R34_NW REUNION_R50_NE REUNION_R50_SE REUNION_R50_SW REUNION_R50_NW REUNION_R64_NE REUNION_R64_SE REUNION_R64_SW REUNION_R64_NW BOM_LAT BOM_LON BOM_TYPE BOM_WIND BOM_PRES BOM_TNUM BOM_CI BOM_RMW BOM_R34_NE BOM_R34_SE BOM_R34_SW BOM_R34_NW BOM_R50_NE BOM_R50_SE BOM_R50_SW BOM_R50_NW BOM_R64_NE BOM_R64_SE BOM_R64_SW BOM_R64_NW BOM_ROCI BOM_POCI BOM_EYE BOM_POS_METHOD BOM_PRES_METHOD NADI_LAT NADI_LON NADI_CAT NADI_WIND NADI_PRES WELLINGTON_LAT WELLINGTON_LON WELLINGTON_WIND WELLINGTON_PRES DS824_LAT DS824_LON DS824_STAGE DS824_WIND DS824_PRES TD9636_LAT TD9636_LON TD9636_STAGE TD9636_WIND TD9636_PRES TD9635_LAT TD9635_LON TD9635_WIND TD9635_PRES TD9635_ROCI NEUMANN_LAT NEUMANN_LON NEUMANN_CLASS NEUMANN_WIND NEUMANN_PRES MLC_LAT MLC_LON MLC_CLASS MLC_WIND MLC_PRES USA_GUST BOM_GUST BOM_GUST_PER REUNION_GUST REUNION_GUST_PER USA_SEAHGT USA_SEARAD_NE USA_SEARAD_SE USA_SEARAD_SW USA_SEARAD_NW STORM_SPEED STORM_DIR
1970217N16260 1970 81 EP MM KRISTEN 1970-08-05 00:00:00 TS 16.0000 -100.000 25 hurdat_epa main 84 84 O________OO___ hurdat_epa EP111970 16.0000 -100.000 TD 25 -1 16.0000 -100.000 TC 25 16.0000 -100.000 1 12 274
1970217N16260 1970 81 EP MM KRISTEN 1970-08-05 03:00:00 TS 16.0423 -100.603 main 119 113 P________PP___ EP111970 16.0353 -100.595 TD 25 -1 16.0353 -100.595 TC 25 16.0707 -100.637 1 12 275
1970217N16260 1970 81 EP MM KRISTEN 1970-08-05 06:00:00 TS 16.1105 -101.212 25 hurdat_epa main 130 130 O________OP___ hurdat_epa EP111970 16.1000 -101.200 TD 25 -1 16.1000 -101.200 TC 25 16.1523 -101.259 1 12 279
1970217N16260 1970 81 EP MM KRISTEN 1970-08-05 09:00:00 TS 16.2275 -101.822 main 143 140 P________PP___ EP111970 16.2200 -101.815 TD 25 -1 16.2200 -101.815 TC 25 16.2577 -101.852 1 12 284
1970217N16260 1970 81 EP MM KRISTEN 1970-08-05 12:00:00 TS 16.4000 -102.400 25 hurdat_epa main 163 154 O________OO___ hurdat_epa EP111970 16.4000 -102.400 TD 25 -1 16.4000 -102.400 TC 25 16.4000 -102.400 2 11 291
1970217N16260 1970 81 EP MM KRISTEN 1970-08-05 15:00:00 TS 16.6257 -102.911 main 158 140 P________PP___ EP111970 16.6348 -102.915 TD 35 0 16.6348 -102.915 TC 35 16.5893 -102.897 2 11 297
1970217N16260 1970 81 EP MM KRISTEN 1970-08-05 18:00:00 TS 16.8846 -103.394 45 hurdat_epa main 144 134 O________OP___ hurdat_epa EP111970 16.9000 -103.400 TS 45 0 16.9000 -103.400 TC 45 16.8231 -103.371 2 10 299
1970217N16260 1970 81 EP MM KRISTEN 1970-08-05 21:00:00 TS 17.1268 -103.868 main 140 128 P________PP___ EP111970 17.1346 -103.870 TS 45 0 17.1346 -103.870 TC 45 17.0954 -103.860 2 11 298
1970217N16260 1970 81 EP MM KRISTEN 1970-08-06 00:00:00 TS 17.4000 -104.400 45 hurdat_epa main 138 138 O________OO___ hurdat_epa EP111970 17.4000 -104.400 TS 45 0 17.4000 -104.400 TC 45 17.4000 -104.400 2 13 298
1970217N16260 1970 81 EP MM KRISTEN 1970-08-06 03:00:00 TS 17.7332 -105.069 main 168 153 P________PP___ EP111970 17.7350 -105.070 TS 45 0 17.7350 -105.070 TC 45 17.7260 -105.066 2 15 298
1970217N16260 1970 81 EP MM KRISTEN 1970-08-06 06:00:00 TS 18.0957 -105.797 45 hurdat_epa main 162 161 O________OP___ hurdat_epa EP111970 18.1000 -105.800 TS 45 0 18.1000 -105.800 TC 45 18.0786 -105.784 2 16 298
1970217N16260 1970 81 EP MM KRISTEN 1970-08-06 09:00:00 TS 18.4543 -106.520 main 184 184 P________PP___ EP111970 18.4575 -106.523 TS 45 0 18.4575 -106.523 TC 45 18.4417 -106.510 2 15 298
1970217N16260 1970 81 EP MM KRISTEN 1970-08-06 12:00:00 TS 18.8000 -107.200 45 hurdat_epa main 223 223 O________OO___ hurdat_epa EP111970 18.8000 -107.200 TS 45 0 18.8000 -107.200 TC 45 18.8000 -107.200 2 14 299
1970217N16260 1970 81 EP MM KRISTEN 1970-08-06 15:00:00 TS 19.1076 -107.783 main 261 261 P________PP___ EP111970 19.0996 -107.773 TS 42 0 19.0996 -107.773 TC 42 19.1396 -107.822 2 12 300
1970217N16260 1970 81 EP MM KRISTEN 1970-08-06 18:00:00 TS 19.4143 -108.320 40 hurdat_epa main 293 293 O________OP___ hurdat_epa EP111970 19.4000 -108.300 TS 40 0 19.4000 -108.300 TC 40 19.4717 -108.398 2 12 302
1970217N16260 1970 81 EP MM KRISTEN 1970-08-06 21:00:00 TS 19.7646 -108.883 main 340 315 P________PP___ EP111970 19.7575 -108.872 TS 40 0 19.7575 -108.872 TC 40 19.7930 -108.925 2 12 304
1970217N16260 1970 81 EP MM KRISTEN 1970-08-07 00:00:00 TS 20.1000 -109.400 40 hurdat_epa main 315 290 O________OO___ hurdat_epa EP111970 20.1000 -109.400 TS 40 0 20.1000 -109.400 TC 40 20.1000 -109.400 2 11 304
1970217N16260 1970 81 EP MM KRISTEN 1970-08-07 03:00:00 TS 20.3611 -109.831 main 279 257 P________PP___ EP111970 20.3573 -109.830 TS 40 0 20.3573 -109.830 TC 40 20.3764 -109.835 2 9 304
1970217N16260 1970 81 EP MM KRISTEN 1970-08-07 06:00:00 TS 20.6083 -110.204 40 hurdat_epa main 257 229 O________OP___ hurdat_epa EP111970 20.6000 -110.200 TS 40 0 20.6000 -110.200 TC 40 20.6416 -110.219 2 9 308
1970217N16260 1970 81 EP MM KRISTEN 1970-08-07 09:00:00 TS 20.8901 -110.560 main 232 211 P________PP___ EP111970 20.8849 -110.558 TS 40 0 20.8849 -110.558 TC 40 20.9110 -110.569 2 9 312
1970217N16260 1970 81 EP MM KRISTEN 1970-08-07 12:00:00 TS 21.2000 -110.900 40 hurdat_epa main 211 199 O________OO___ hurdat_epa EP111970 21.2000 -110.900 TS 40 0 21.2000 -110.900 TC 40 21.2000 -110.900 2 9 315
1970217N16260 1970 81 EP MM KRISTEN 1970-08-07 15:00:00 TS 21.5421 -111.256 main 205 196 P________PP___ EP111970 21.5425 -111.258 TS 37 0 21.5425 -111.258 TC 37 21.5404 -111.252 2 10 317
1970217N16260 1970 81 EP MM KRISTEN 1970-08-07 18:00:00 TS 21.9000 -111.597 35 hurdat_epa main 198 196 O________OP___ hurdat_epa EP111970 21.9000 -111.600 TS 35 0 21.9000 -111.600 TC 35 21.8998 -111.587 2 9 320
1970217N16260 1970 81 EP MM KRISTEN 1970-08-07 21:00:00 TS 22.2638 -111.913 main 205 201 P________PP___ EP111970 22.2649 -111.915 TS 30 -1 22.2649 -111.915 TC 30 22.2593 -111.905 2 9 321
1970217N16260 1970 81 EP MM KRISTEN 1970-08-08 00:00:00 TS 22.6000 -112.200 25 hurdat_epa main 201 186 O________OO___ hurdat_epa EP111970 22.6000 -112.200 TD 25 -1 22.6000 -112.200 TC 25 22.6000 -112.200 6 8 320
1970217N16260 1970 81 EP MM KRISTEN 1970-08-08 03:00:00 TS 22.8675 -112.461 main 191 181 P________PP___ EP111970 22.8574 -112.458 TD 25 -1 22.8574 -112.458 TC 25 22.9079 -112.472 6 7 318
1970217N16260 1970 81 EP MM KRISTEN 1970-08-08 06:00:00 TS 23.1175 -112.705 25 hurdat_epa main 181 166 O________OP___ hurdat_epa EP111970 23.1000 -112.700 TD 25 -1 23.1000 -112.700 TC 25 23.1877 -112.725 6 7 320
1970217N16260 1970 81 EP MM KRISTEN 1970-08-08 09:00:00 TS 23.3978 -112.951 main 171 157 P________PP___ EP111970 23.3851 -112.947 TD 25 -1 23.3851 -112.947 TC 25 23.4486 -112.965 6 7 322
1970217N16260 1970 81 EP MM KRISTEN 1970-08-08 12:00:00 TS 23.7000 -113.200 25 hurdat_epa main 157 O________OO___ hurdat_epa EP111970 23.7000 -113.200 TD 25 -1 23.7000 -113.200 TC 25 23.7000 -113.200 6 8 323

About IBTrACS Database

This database is a web-friendly format of International Best Track Archive for Climate Stewardship (IBTrACS), a global best track data archive curated by NOAA dating back to 1842.

Updated: 2021-12-01